createdAt,value
2018-11-29T00:01:14.880Z,78.83
2018-11-29T00:03:45.301Z,77.60
2018-11-29T00:06:14.595Z,76.33
2018-11-29T00:08:44.104Z,75.43
2018-11-29T00:11:13.437Z,79.63
2018-11-29T00:13:42.842Z,76.37
2018-11-29T00:16:12.324Z,80.23
2018-11-29T00:18:42.715Z,81.07
2018-11-29T00:21:12.060Z,85.67
2018-11-29T00:23:41.355Z,76.00
2018-11-29T00:26:10.742Z,70.90
2018-11-29T00:28:40.217Z,76.43
2018-11-29T00:31:09.596Z,73.67
2018-11-29T00:33:40.351Z,77.43
2018-11-29T00:36:09.707Z,78.83
2018-11-29T00:38:39.056Z,73.63
2018-11-29T00:41:08.488Z,73.80
2018-11-29T00:43:37.912Z,66.33
2018-11-29T00:46:07.280Z,74.70
2018-11-29T00:48:36.742Z,72.83
2018-11-29T00:51:06.572Z,73.43
2018-11-29T00:53:35.955Z,73.10
2018-11-29T00:56:14.164Z,69.10
2018-11-29T00:58:43.876Z,76.60
2018-11-29T01:01:13.216Z,74.47
2018-11-29T01:03:43.559Z,70.00
2018-11-29T01:06:12.972Z,63.80
2018-11-29T01:08:42.332Z,63.57
2018-11-29T01:11:11.715Z,67.90
2018-11-29T01:13:41.231Z,66.43
2018-11-29T01:16:10.588Z,64.63
2018-11-29T01:18:41.117Z,67.57
2018-11-29T01:21:10.449Z,70.07
2018-11-29T01:23:39.966Z,67.10
2018-11-29T01:26:09.406Z,66.17
2018-11-29T01:28:38.911Z,64.10
2018-11-29T01:31:08.305Z,66.93
2018-11-29T01:33:38.152Z,73.23
2018-11-29T01:36:07.591Z,67.83
2018-11-29T01:38:36.911Z,62.77
2018-11-29T01:41:06.347Z,66.90
2018-11-29T01:43:35.705Z,71.87
2018-11-29T01:46:05.087Z,64.00
2018-11-29T01:48:34.387Z,64.23
2018-11-29T01:51:03.719Z,60.50
2018-11-29T01:53:33.050Z,62.67
2018-11-29T01:56:02.455Z,64.23
2018-11-29T01:58:31.777Z,66.37
2018-11-29T02:01:01.230Z,69.80
2018-11-29T02:03:30.935Z,60.00
2018-11-29T02:06:00.315Z,64.90
2018-11-29T02:08:29.681Z,63.17
2018-11-29T02:10:58.967Z,60.87
2018-11-29T02:13:28.331Z,67.43
2018-11-29T02:15:58.057Z,64.03
2018-11-29T02:18:28.597Z,59.50
2018-11-29T02:20:57.997Z,66.23
2018-11-29T02:23:27.396Z,60.47
2018-11-29T02:25:56.778Z,58.77
2018-11-29T02:28:26.119Z,52.63
2018-11-29T02:30:55.433Z,62.10
2018-11-29T02:33:25.072Z,57.73
2018-11-29T02:35:54.588Z,56.37
2018-11-29T02:38:23.908Z,58.83
2018-11-29T02:40:53.889Z,56.83
2018-11-29T02:43:23.238Z,63.50
2018-11-29T02:45:53.459Z,55.80
2018-11-29T02:48:22.851Z,59.77
2018-11-29T02:50:52.443Z,52.63
2018-11-29T02:53:21.763Z,57.27
2018-11-29T02:55:51.230Z,57.80
2018-11-29T02:58:20.527Z,55.00
2018-11-29T03:00:49.844Z,55.50
2018-11-29T03:03:19.210Z,55.00
2018-11-29T03:05:48.588Z,55.63
2018-11-29T03:08:17.891Z,55.77
2018-11-29T03:10:47.226Z,53.20
2018-11-29T03:13:16.591Z,61.80
2018-11-29T03:15:45.954Z,56.00
2018-11-29T03:18:15.357Z,53.87
2018-11-29T03:20:45.411Z,55.23
2018-11-29T03:23:14.768Z,59.37
2018-11-29T03:25:44.140Z,58.27
2018-11-29T03:28:13.525Z,57.77
2018-11-29T03:30:43.737Z,62.50
2018-11-29T03:33:13.178Z,66.13
2018-11-29T03:35:44.629Z,58.60
2018-11-29T03:38:11.907Z,54.13
2018-11-29T03:40:41.227Z,64.30
2018-11-29T03:43:10.552Z,60.53
2018-11-29T03:45:41.208Z,60.43
2018-11-29T03:48:10.628Z,64.57
2018-11-29T03:50:40.009Z,61.03
2018-11-29T03:53:09.327Z,63.47
2018-11-29T03:55:38.625Z,70.87
2018-11-29T03:58:07.978Z,66.97
2018-11-29T04:00:37.494Z,73.47
2018-11-29T04:03:07.401Z,67.07
2018-11-29T04:05:36.801Z,67.23
2018-11-29T04:08:06.266Z,72.07
2018-11-29T04:10:35.637Z,66.00
2018-11-29T04:13:05.047Z,67.70
2018-11-29T04:15:34.426Z,61.47
2018-11-29T04:18:03.737Z,67.00
2018-11-29T04:20:33.052Z,59.80
2018-11-29T04:23:02.349Z,67.57
2018-11-29T04:25:31.706Z,70.70
2018-11-29T04:28:01.080Z,66.13
2018-11-29T04:30:30.880Z,74.70
2018-11-29T04:33:00.846Z,74.20
2018-11-29T04:35:30.193Z,82.57
2018-11-29T04:38:00.112Z,67.23
2018-11-29T04:40:29.416Z,63.13
2018-11-29T04:42:59.123Z,68.00
2018-11-29T04:45:43.374Z,62.33
2018-11-29T04:48:12.747Z,59.47
2018-11-29T04:50:42.389Z,59.77
2018-11-29T04:53:11.782Z,74.00
2018-11-29T04:55:41.122Z,69.23
2018-11-29T04:58:10.508Z,67.10
2018-11-29T05:00:41.753Z,67.93
2018-11-29T05:03:11.136Z,68.33
2018-11-29T05:05:40.538Z,68.50
2018-11-29T05:08:09.870Z,64.57
2018-11-29T05:10:39.221Z,66.70
2018-11-29T05:13:08.621Z,65.00
2018-11-29T05:15:39.742Z,67.57
2018-11-29T05:18:09.080Z,62.13
2018-11-29T05:20:38.398Z,64.63
2018-11-29T05:23:07.870Z,64.63
2018-11-29T05:25:37.239Z,66.33
2018-11-29T05:28:06.586Z,70.43
2018-11-29T05:30:35.988Z,65.67
2018-11-29T05:33:05.491Z,62.37
2018-11-29T05:35:34.875Z,67.87
2018-11-29T05:38:06.085Z,64.13
2018-11-29T05:40:35.515Z,69.23
2018-11-29T05:43:04.977Z,64.00
2018-11-29T05:45:34.828Z,60.93
2018-11-29T05:48:04.963Z,65.63
2018-11-29T05:50:34.464Z,74.77
2018-11-29T05:53:03.832Z,90.03
2018-11-29T05:55:33.171Z,69.33
2018-11-29T05:58:03.121Z,62.70
2018-11-29T06:00:33.026Z,64.07
2018-11-29T06:03:02.628Z,63.20
2018-11-29T06:05:35.137Z,64.43
2018-11-29T06:08:04.748Z,64.43
2018-11-29T06:10:34.092Z,68.90
2018-11-29T06:13:03.468Z,70.77
2018-11-29T06:15:33.106Z,65.20
2018-11-29T06:18:02.490Z,67.53
2018-11-29T06:20:31.829Z,70.00
2018-11-29T06:23:01.268Z,71.13
2018-11-29T06:25:30.637Z,64.97
2018-11-29T06:28:03.298Z,69.17
2018-11-29T06:30:34.664Z,71.67
2018-11-29T06:33:04.048Z,71.37
2018-11-29T06:35:33.439Z,70.00
2018-11-29T06:38:02.826Z,74.60
2018-11-29T06:40:32.139Z,70.93
2018-11-29T06:43:01.670Z,77.07
2018-11-29T06:45:31.705Z,77.27
2018-11-29T06:48:01.872Z,66.37
2018-11-29T06:50:31.262Z,75.63
2018-11-29T06:53:01.225Z,72.60
2018-11-29T06:55:30.539Z,72.97
2018-11-29T06:58:00.254Z,72.97
2018-11-29T07:00:31.625Z,69.00
2018-11-29T07:03:01.613Z,73.27
2018-11-29T07:05:30.937Z,72.43
2018-11-29T07:08:00.688Z,67.33
2018-11-29T07:10:33.763Z,75.20
2018-11-29T07:13:04.368Z,75.83
2018-11-29T07:15:33.879Z,74.90
2018-11-29T07:18:03.670Z,75.33
2018-11-29T07:20:33.048Z,67.33
2018-11-29T07:23:02.952Z,71.70
2018-11-29T07:25:32.248Z,73.27
2018-11-29T07:28:03.370Z,71.43
2018-11-29T07:30:32.996Z,71.53
2018-11-29T07:33:03.106Z,71.63
2018-11-29T07:35:32.494Z,75.20
2018-11-29T07:38:02.469Z,67.57
2018-11-29T07:40:31.823Z,69.90
2018-11-29T07:43:01.354Z,77.87
2018-11-29T07:45:31.307Z,65.73
2018-11-29T07:48:00.668Z,68.17
2018-11-29T07:50:30.094Z,79.67
2018-11-29T07:52:59.467Z,71.50
2018-11-29T07:55:28.875Z,74.83
2018-11-29T07:57:58.250Z,75.67
2018-11-29T08:00:28.761Z,69.63
2018-11-29T08:02:58.119Z,71.77
2018-11-29T08:05:27.479Z,73.87
2018-11-29T08:07:56.807Z,67.73
2018-11-29T08:10:26.189Z,71.70
2018-11-29T08:12:55.518Z,76.50
2018-11-29T08:15:24.856Z,75.83
2018-11-29T08:17:54.352Z,72.53
2018-11-29T08:20:23.781Z,80.97
2018-11-29T08:22:53.174Z,77.20
2018-11-29T08:25:22.519Z,74.17
2018-11-29T08:27:52.138Z,71.00
2018-11-29T08:30:21.491Z,73.83
2018-11-29T08:32:50.876Z,64.27
2018-11-29T08:35:20.251Z,68.33
2018-11-29T08:37:49.670Z,65.70
2018-11-29T08:40:23.385Z,68.77
2018-11-29T08:42:52.801Z,82.53
2018-11-29T08:45:22.169Z,69.83
2018-11-29T08:47:51.542Z,81.13
2018-11-29T08:50:20.908Z,75.63
2018-11-29T08:52:50.311Z,75.03
2018-11-29T08:55:20.233Z,76.37
2018-11-29T08:57:50.106Z,74.03
2018-11-29T09:00:20.381Z,82.37
2018-11-29T09:02:49.854Z,78.27
2018-11-29T09:05:19.246Z,63.77
2018-11-29T09:07:49.445Z,78.90
2018-11-29T09:10:22.934Z,67.93
2018-11-29T09:12:52.512Z,77.87
2018-11-29T09:15:21.851Z,72.43
2018-11-29T09:17:51.277Z,73.13
2018-11-29T09:20:21.681Z,76.67
2018-11-29T09:22:51.067Z,72.87
2018-11-29T09:25:22.257Z,62.53
2018-11-29T09:27:51.778Z,72.53
2018-11-29T09:30:23.078Z,73.80
2018-11-29T09:32:54.488Z,71.97
2018-11-29T09:35:23.926Z,68.83
2018-11-29T09:37:53.319Z,73.03
2018-11-29T09:40:22.636Z,74.03
2018-11-29T09:42:51.997Z,77.30
2018-11-29T09:45:23.303Z,71.33
2018-11-29T09:47:54.786Z,70.30
2018-11-29T09:50:25.089Z,66.63
2018-11-29T09:52:54.422Z,68.73
2018-11-29T09:55:23.784Z,81.27
2018-11-29T09:57:53.180Z,72.33
2018-11-29T10:00:28.447Z,65.90
2018-11-29T10:02:59.968Z,64.93
2018-11-29T10:05:29.342Z,71.97
2018-11-29T10:07:58.743Z,68.23
2018-11-29T10:10:28.098Z,68.63
2018-11-29T10:12:57.488Z,64.27
2018-11-29T10:15:27.039Z,68.33
2018-11-29T10:17:56.487Z,65.87
2018-11-29T10:20:25.775Z,57.50
2018-11-29T10:22:55.096Z,68.07
2018-11-29T10:25:24.434Z,59.30
2018-11-29T10:27:58.206Z,62.30
2018-11-29T10:30:29.945Z,62.77
2018-11-29T10:32:59.319Z,61.83
2018-11-29T10:35:28.650Z,61.80
2018-11-29T10:37:58.019Z,62.53
2018-11-29T10:40:30.894Z,62.77
2018-11-29T10:43:00.546Z,57.70
2018-11-29T10:45:30.912Z,62.00
2018-11-29T10:48:00.291Z,66.60
2018-11-29T10:50:29.733Z,53.93
2018-11-29T10:52:59.019Z,55.90
2018-11-29T10:55:28.402Z,57.60
2018-11-29T10:57:57.761Z,55.90
2018-11-29T11:00:32.349Z,59.90
2018-11-29T11:03:33.189Z,59.23
2018-11-29T11:06:02.496Z,59.67
2018-11-29T11:08:31.801Z,61.90
2018-11-29T11:11:05.314Z,56.73
2018-11-29T11:13:34.642Z,60.53
2018-11-29T11:16:04.051Z,56.63
2018-11-29T11:18:33.872Z,56.57
2018-11-29T11:21:03.271Z,60.23
2018-11-29T11:23:32.629Z,57.30
2018-11-29T11:26:02.046Z,63.40
2018-11-29T11:28:31.407Z,60.67
2018-11-29T11:31:00.703Z,59.03
2018-11-29T11:33:30.967Z,64.63
2018-11-29T11:36:00.283Z,62.73
2018-11-29T11:38:29.629Z,58.53
2018-11-29T11:40:58.973Z,59.67
2018-11-29T11:43:28.261Z,54.17
2018-11-29T11:45:57.597Z,61.77
2018-11-29T11:48:27.010Z,60.47
2018-11-29T11:50:56.365Z,58.07
2018-11-29T11:53:25.677Z,57.23
2018-11-29T11:55:55.111Z,64.90
2018-11-29T11:58:24.345Z,57.23
2018-11-29T12:00:53.686Z,60.37
2018-11-29T12:03:22.987Z,57.57
2018-11-29T12:05:52.365Z,58.50
2018-11-29T12:08:21.721Z,59.97
2018-11-29T12:10:51.076Z,60.10
2018-11-29T12:13:23.438Z,61.90
2018-11-29T12:15:52.839Z,59.87
2018-11-29T12:18:22.188Z,61.47
2018-11-29T12:20:51.614Z,65.53
2018-11-29T12:23:20.922Z,59.23
2018-11-29T12:25:50.329Z,54.50
2018-11-29T12:28:19.853Z,61.27
2018-11-29T12:30:50.437Z,65.37
2018-11-29T12:33:19.970Z,51.13
2018-11-29T12:35:49.331Z,71.33
2018-11-29T12:38:19.342Z,60.00
2018-11-29T12:40:48.681Z,62.57
2018-11-29T12:43:18.793Z,62.07
2018-11-29T12:45:48.095Z,57.27
2018-11-29T12:48:17.943Z,60.90
2018-11-29T12:50:47.311Z,55.70
2018-11-29T12:53:16.823Z,60.73
2018-11-29T12:55:46.392Z,59.87
2018-11-29T12:58:15.697Z,60.70
2018-11-29T13:00:45.054Z,63.63
2018-11-29T13:03:14.391Z,60.73
2018-11-29T13:05:43.727Z,64.57
2018-11-29T13:08:13.025Z,62.27
2018-11-29T13:10:42.334Z,59.67
2018-11-29T13:13:11.611Z,62.43
2018-11-29T13:15:42.015Z,59.07
2018-11-29T13:18:11.363Z,60.13
2018-11-29T13:20:40.709Z,63.07
2018-11-29T13:23:10.036Z,60.67
2018-11-29T13:25:39.379Z,58.37
2018-11-29T13:28:08.889Z,63.63
2018-11-29T13:30:39.798Z,59.13
2018-11-29T13:33:09.837Z,62.37
2018-11-29T13:35:39.255Z,64.50
2018-11-29T13:38:12.941Z,58.93
2018-11-29T13:40:47.826Z,57.90
2018-11-29T13:43:17.208Z,59.53
2018-11-29T13:45:46.563Z,58.07
2018-11-29T13:48:16.010Z,62.20
2018-11-29T13:50:45.379Z,65.90
2018-11-29T13:53:14.793Z,60.53
2018-11-29T13:55:44.252Z,59.27
2018-11-29T13:58:13.623Z,58.07
2018-11-29T14:00:43.565Z,59.53
2018-11-29T14:03:14.349Z,61.17
2018-11-29T14:05:43.678Z,60.47
2018-11-29T14:08:13.059Z,61.63
2018-11-29T14:10:43.170Z,55.37
2018-11-29T14:13:12.801Z,59.47
2018-11-29T14:15:43.132Z,60.03
2018-11-29T14:18:12.534Z,58.30
2018-11-29T14:20:41.928Z,59.53
2018-11-29T14:23:11.349Z,59.57
2018-11-29T14:25:40.762Z,58.40
2018-11-29T14:28:10.195Z,58.60
2018-11-29T14:30:41.273Z,62.13
2018-11-29T14:33:10.600Z,59.33
2018-11-29T14:35:40.057Z,63.20
2018-11-29T14:38:09.437Z,56.10
2018-11-29T14:40:38.815Z,51.80
2018-11-29T14:43:08.308Z,55.43
2018-11-29T14:45:37.914Z,55.70
2018-11-29T14:48:07.267Z,59.70
2018-11-29T14:50:38.094Z,58.33
2018-11-29T14:53:08.637Z,59.23
2018-11-29T14:55:39.067Z,57.10
2018-11-29T14:58:11.829Z,56.90
2018-11-29T15:00:42.325Z,52.87
2018-11-29T15:03:13.992Z,57.10
2018-11-29T15:05:43.669Z,58.33
2018-11-29T15:08:13.043Z,58.33
2018-11-29T15:10:42.427Z,63.77
2018-11-29T15:13:12.543Z,58.53
2018-11-29T15:15:44.106Z,61.37
2018-11-29T15:18:13.835Z,59.63
2018-11-29T15:20:47.495Z,56.23
2018-11-29T15:23:18.248Z,59.00
2018-11-29T15:25:47.738Z,55.43
2018-11-29T15:28:17.105Z,60.33
2018-11-29T15:30:48.127Z,62.33
2018-11-29T15:33:17.506Z,65.63
2018-11-29T15:35:46.907Z,58.40
2018-11-29T15:38:16.274Z,62.33
2018-11-29T15:40:45.659Z,63.30
2018-11-29T15:43:15.178Z,67.80
2018-11-29T15:45:45.143Z,65.87
2018-11-29T15:48:14.549Z,59.13
2018-11-29T15:50:51.063Z,63.37
2018-11-29T15:53:21.602Z,64.23
2018-11-29T15:55:51.089Z,64.97
2018-11-29T15:58:21.091Z,65.17
2018-11-29T16:00:53.413Z,68.63
2018-11-29T16:03:29.828Z,61.97
2018-11-29T16:06:01.980Z,60.93
2018-11-29T16:08:33.962Z,67.50
2018-11-29T16:11:03.862Z,67.27
2018-11-29T16:13:34.573Z,61.90
2018-11-29T16:16:09.074Z,66.80
2018-11-29T16:18:39.548Z,71.50
2018-11-29T16:21:08.871Z,66.47
2018-11-29T16:23:38.302Z,75.53
2018-11-29T16:26:07.699Z,70.37
2018-11-29T16:28:37.525Z,69.27
2018-11-29T16:31:08.970Z,64.43
2018-11-29T16:33:40.459Z,66.50
2018-11-29T16:36:10.066Z,74.83
2018-11-29T16:38:39.670Z,72.10
2018-11-29T16:41:09.101Z,62.90
2018-11-29T16:43:38.593Z,67.53
2018-11-29T16:46:08.110Z,71.83
2018-11-29T16:48:37.819Z,70.63
2018-11-29T16:51:07.324Z,66.43
2018-11-29T16:53:37.368Z,69.10
2018-11-29T16:56:06.756Z,68.87
2018-11-29T16:58:36.876Z,72.40
2018-11-29T17:01:08.941Z,64.83
2018-11-29T17:03:37.523Z,82.40
2018-11-29T17:06:06.982Z,63.80
2018-11-29T17:08:36.930Z,68.30
2018-11-29T17:11:06.339Z,103.93
2018-11-29T17:13:36.294Z,71.77
2018-11-29T17:16:06.044Z,109.50
2018-11-29T17:18:36.163Z,97.50
2018-11-29T17:21:05.671Z,87.30
2018-11-29T17:23:35.039Z,97.70
2018-11-29T17:26:04.438Z,98.70
2018-11-29T17:28:33.821Z,94.60
2018-11-29T17:31:03.182Z,96.67
2018-11-29T17:33:33.241Z,70.83
2018-11-29T17:36:02.598Z,78.13
2018-11-29T17:38:31.989Z,67.23
2018-11-29T17:41:01.316Z,75.07
2018-11-29T17:43:30.645Z,90.97
2018-11-29T17:45:59.994Z,68.57
2018-11-29T17:48:30.554Z,71.33
2018-11-29T17:51:00.027Z,68.53
2018-11-29T17:53:29.428Z,84.93
2018-11-29T17:55:58.815Z,61.63
2018-11-29T17:58:28.235Z,68.13
2018-11-29T18:00:58.295Z,56.93
2018-11-29T18:03:28.315Z,67.90
2018-11-29T18:05:57.801Z,59.13
2018-11-29T18:08:27.257Z,61.50
2018-11-29T18:10:57.967Z,77.63
2018-11-29T18:13:32.918Z,59.73
2018-11-29T18:16:02.355Z,64.27
2018-11-29T18:18:32.656Z,66.77
2018-11-29T18:21:01.976Z,65.33
2018-11-29T18:23:31.296Z,66.83
2018-11-29T18:26:00.672Z,82.03
2018-11-29T18:28:30.067Z,73.63
2018-11-29T18:30:59.440Z,73.17
2018-11-29T18:33:28.984Z,62.17
2018-11-29T18:35:58.595Z,73.67
2018-11-29T18:38:28.103Z,70.50
2018-11-29T18:41:04.609Z,64.80
2018-11-29T18:43:42.896Z,62.97
2018-11-29T18:46:17.093Z,67.67
2018-11-29T18:48:43.855Z,64.50
2018-11-29T18:51:13.247Z,64.40
2018-11-29T18:53:43.184Z,65.43
2018-11-29T18:56:12.609Z,60.50
2018-11-29T18:58:42.413Z,68.40
2018-11-29T19:01:11.826Z,67.23
2018-11-29T19:03:42.699Z,66.43
2018-11-29T19:06:12.170Z,68.63
2018-11-29T19:08:42.263Z,69.17
2018-11-29T19:11:11.663Z,60.63
2018-11-29T19:13:41.967Z,65.23
2018-11-29T19:16:11.386Z,54.23
2018-11-29T19:18:42.480Z,59.83
2018-11-29T19:21:11.940Z,62.27
2018-11-29T19:23:41.376Z,67.83
2018-11-29T19:26:10.763Z,62.83
2018-11-29T19:28:40.330Z,56.83
2018-11-29T19:31:09.716Z,68.10
2018-11-29T19:33:40.860Z,68.03
2018-11-29T19:36:10.351Z,84.43
2018-11-29T19:38:40.303Z,59.70
2018-11-29T19:41:10.751Z,62.30
2018-11-29T19:43:40.851Z,87.27
2018-11-29T19:46:10.256Z,70.73
2018-11-29T19:48:41.395Z,59.30
2018-11-29T19:51:10.994Z,65.53
2018-11-29T19:53:40.528Z,55.33
2018-11-29T19:56:10.053Z,54.97
2018-11-29T19:58:39.606Z,72.10
2018-11-29T20:01:09.028Z,53.87
2018-11-29T20:03:39.090Z,68.30
2018-11-29T20:06:08.459Z,54.57
2018-11-29T20:08:38.666Z,55.40
2018-11-29T20:11:08.067Z,52.20
2018-11-29T20:13:37.573Z,62.03
2018-11-29T20:16:06.947Z,53.87
2018-11-29T20:18:36.409Z,58.10
2018-11-29T20:21:05.856Z,67.57
2018-11-29T20:23:35.221Z,52.90
2018-11-29T20:26:04.613Z,52.13
2018-11-29T20:28:34.109Z,51.37
2018-11-29T20:31:03.478Z,51.73
2018-11-29T20:33:33.206Z,58.60
2018-11-29T20:36:02.612Z,64.43
2018-11-29T20:38:32.140Z,55.40
2018-11-29T20:41:01.508Z,53.10
2018-11-29T20:43:30.847Z,54.17
2018-11-29T20:46:00.197Z,48.53
2018-11-29T20:48:31.253Z,53.90
2018-11-29T20:51:02.152Z,56.13
2018-11-29T20:53:35.002Z,51.17
2018-11-29T20:56:06.622Z,53.60
2018-11-29T20:58:36.104Z,52.43
2018-11-29T21:01:06.238Z,51.43
2018-11-29T21:03:35.793Z,55.90
2018-11-29T21:06:06.098Z,52.33
2018-11-29T21:08:35.561Z,48.33
2018-11-29T21:11:05.075Z,56.07
2018-11-29T21:13:34.431Z,84.60
2018-11-29T21:16:04.017Z,58.37
2018-11-29T21:18:33.685Z,55.53
2018-11-29T21:21:03.024Z,45.33
2018-11-29T21:23:32.399Z,45.60
2018-11-29T21:26:01.761Z,53.77
2018-11-29T21:28:31.376Z,47.17
2018-11-29T21:31:00.801Z,47.97
2018-11-29T21:33:30.612Z,48.80
2018-11-29T21:36:00.073Z,50.97
2018-11-29T21:38:29.544Z,49.40
2018-11-29T21:41:01.072Z,43.20
2018-11-29T21:43:30.451Z,49.40
2018-11-29T21:45:59.869Z,44.37
2018-11-29T21:48:29.474Z,45.23
2018-11-29T21:50:58.849Z,44.80
2018-11-29T21:53:28.312Z,39.87
2018-11-29T21:55:57.829Z,45.83
2018-11-29T21:58:27.213Z,48.77
2018-11-29T22:00:57.232Z,40.60
2018-11-29T22:03:26.614Z,43.17
2018-11-29T22:05:56.086Z,41.97
2018-11-29T22:08:25.420Z,44.17
2018-11-29T22:10:54.825Z,43.77
2018-11-29T22:13:24.256Z,45.80
2018-11-29T22:15:54.104Z,39.03
2018-11-29T22:18:24.519Z,41.43
2018-11-29T22:20:58.794Z,41.07
2018-11-29T22:23:28.030Z,43.57
2018-11-29T22:25:58.892Z,40.87
2018-11-29T22:28:28.603Z,37.57
2018-11-29T22:30:57.986Z,37.97
2018-11-29T22:33:27.819Z,39.50
2018-11-29T22:35:57.222Z,40.37
2018-11-29T22:38:26.516Z,39.03
2018-11-29T22:40:55.968Z,35.77
2018-11-29T22:43:25.287Z,37.53
2018-11-29T22:45:54.901Z,34.00
2018-11-29T22:48:24.227Z,43.90
2018-11-29T22:50:54.284Z,42.93
2018-11-29T22:53:23.643Z,37.03
2018-11-29T22:55:53.330Z,37.20
2018-11-29T22:58:22.876Z,38.13
2018-11-29T23:00:52.741Z,38.60
2018-11-29T23:03:22.430Z,45.30
2018-11-29T23:05:51.831Z,40.93
2018-11-29T23:08:21.246Z,32.47
2018-11-29T23:10:50.684Z,35.03
2018-11-29T23:13:20.117Z,37.93
2018-11-29T23:15:49.972Z,35.63
2018-11-29T23:18:19.326Z,36.00
2018-11-29T23:20:49.054Z,35.40
2018-11-29T23:23:25.044Z,38.93
2018-11-29T23:25:54.640Z,33.00
2018-11-29T23:28:23.955Z,33.70
2018-11-29T23:30:53.360Z,38.13
2018-11-29T23:33:22.727Z,37.40
2018-11-29T23:35:52.072Z,37.17
2018-11-29T23:38:21.511Z,36.43
2018-11-29T23:40:51.004Z,31.97
2018-11-29T23:43:20.445Z,32.17
2018-11-29T23:45:49.936Z,33.70
2018-11-29T23:48:19.375Z,36.47
2018-11-29T23:50:48.816Z,43.37
2018-11-29T23:53:18.210Z,32.27
2018-11-29T23:55:47.640Z,30.10
2018-11-29T23:58:17.046Z,34.83
